createdAt,value
2022-11-14T00:01:01.149Z,13.20
2022-11-14T00:03:30.306Z,13.17
2022-11-14T00:05:58.073Z,14.50
2022-11-14T00:08:26.389Z,14.37
2022-11-14T00:10:54.318Z,14.37
2022-11-14T00:13:22.368Z,14.80
2022-11-14T00:15:54.215Z,15.20
2022-11-14T00:18:22.587Z,14.33
2022-11-14T00:20:53.021Z,14.50
2022-11-14T00:23:21.410Z,15.60
2022-11-14T00:25:49.644Z,15.90
2022-11-14T00:28:17.468Z,15.87
2022-11-14T00:30:48.554Z,15.57
2022-11-14T00:33:20.347Z,16.13
2022-11-14T00:35:54.172Z,16.33
2022-11-14T00:38:22.147Z,17.07
2022-11-14T00:40:49.961Z,16.97
2022-11-14T00:43:17.772Z,16.20
2022-11-14T00:45:46.170Z,16.83
2022-11-14T00:48:14.298Z,17.63
2022-11-14T00:50:42.406Z,16.93
2022-11-14T00:53:11.668Z,17.33
2022-11-14T00:55:39.459Z,18.87
2022-11-14T00:58:07.326Z,17.67
2022-11-14T01:00:35.598Z,17.47
2022-11-14T01:03:03.629Z,17.97
2022-11-14T01:05:31.446Z,18.17
2022-11-14T01:07:59.229Z,18.00
2022-11-14T01:10:28.408Z,18.17
2022-11-14T01:12:56.278Z,18.37
2022-11-14T01:15:24.094Z,18.30
2022-11-14T01:17:51.908Z,18.27
2022-11-14T01:20:19.788Z,18.93
2022-11-14T01:22:47.605Z,19.03
2022-11-14T01:25:15.647Z,19.47
2022-11-14T01:27:44.802Z,19.30
2022-11-14T01:30:14.118Z,19.50
2022-11-14T01:32:42.041Z,19.50
2022-11-14T01:35:10.039Z,20.70
2022-11-14T01:37:37.846Z,18.67
2022-11-14T01:40:06.526Z,19.13
2022-11-14T01:42:34.334Z,19.93
2022-11-14T01:45:18.350Z,20.43
2022-11-14T01:47:46.191Z,19.63
2022-11-14T01:50:14.255Z,19.93
2022-11-14T01:52:42.392Z,20.07
2022-11-14T01:55:11.043Z,20.30
2022-11-14T01:57:49.048Z,20.07
2022-11-14T02:00:18.464Z,20.53
2022-11-14T02:02:47.353Z,20.57
2022-11-14T02:05:18.854Z,20.23
2022-11-14T02:07:46.762Z,20.70
2022-11-14T02:10:18.863Z,20.47
2022-11-14T02:12:47.209Z,21.00
2022-11-14T02:15:15.893Z,21.47
2022-11-14T02:17:45.792Z,20.17
2022-11-14T02:20:21.593Z,20.47
2022-11-14T02:22:49.352Z,19.77
2022-11-14T02:25:19.869Z,20.97
2022-11-14T02:27:47.872Z,20.40
2022-11-14T02:30:19.544Z,19.93
2022-11-14T02:35:36.634Z,20.10
2022-11-14T02:38:04.465Z,20.87
2022-11-14T02:40:32.345Z,19.73
2022-11-14T02:43:00.339Z,20.47
2022-11-14T02:45:28.528Z,20.03
2022-11-14T02:47:56.367Z,20.70
2022-11-14T02:50:24.234Z,21.30
2022-11-14T02:52:53.961Z,21.17
2022-11-14T02:55:21.955Z,20.40
2022-11-14T02:57:49.819Z,20.63
2022-11-14T03:00:19.170Z,20.63
2022-11-14T03:02:46.945Z,21.03
2022-11-14T03:05:14.884Z,19.53
2022-11-14T03:07:42.682Z,21.13
2022-11-14T03:10:13.872Z,21.20
2022-11-14T03:12:41.676Z,21.17
2022-11-14T03:15:10.808Z,21.30
2022-11-14T03:17:38.655Z,20.63
2022-11-14T03:20:07.830Z,20.03
2022-11-14T03:22:35.614Z,21.87
2022-11-14T03:25:03.405Z,20.37
2022-11-14T03:27:32.570Z,21.83
2022-11-14T03:30:00.343Z,21.10
2022-11-14T03:32:28.108Z,21.10
2022-11-14T03:34:55.964Z,19.70
2022-11-14T03:37:23.765Z,20.17
2022-11-14T03:39:51.526Z,20.47
2022-11-14T03:42:19.337Z,20.23
2022-11-14T03:44:48.526Z,20.90
2022-11-14T03:47:16.309Z,21.17
2022-11-14T03:49:44.992Z,20.43
2022-11-14T03:52:13.266Z,20.13
2022-11-14T03:54:41.075Z,21.00
2022-11-14T03:57:08.850Z,20.10
2022-11-14T03:59:36.630Z,20.17
2022-11-14T04:02:05.787Z,20.73
2022-11-14T04:04:33.578Z,21.27
2022-11-14T04:07:01.492Z,21.60
2022-11-14T04:09:29.542Z,19.67
2022-11-14T04:11:57.334Z,20.67
2022-11-14T04:14:25.127Z,20.57
2022-11-14T04:16:52.957Z,19.93
2022-11-14T04:19:22.282Z,19.80
2022-11-14T04:21:50.099Z,21.50
2022-11-14T04:24:17.853Z,20.43
2022-11-14T04:26:45.788Z,19.83
2022-11-14T04:29:13.620Z,20.47
2022-11-14T04:31:41.458Z,21.23
2022-11-14T04:34:09.288Z,20.33
2022-11-14T04:36:38.478Z,20.23
2022-11-14T04:39:06.452Z,19.90
2022-11-14T04:41:34.266Z,19.73
2022-11-14T04:44:02.149Z,19.70
2022-11-14T04:46:30.023Z,20.03
2022-11-14T04:48:57.804Z,18.90
2022-11-14T04:51:25.613Z,20.00
2022-11-14T04:53:54.751Z,19.50
2022-11-14T04:56:25.348Z,20.10
2022-11-14T04:58:53.252Z,20.00
2022-11-14T05:01:21.209Z,20.30
2022-11-14T05:03:49.129Z,19.83
2022-11-14T05:06:17.059Z,21.03
2022-11-14T05:08:44.881Z,19.00
2022-11-14T05:11:17.356Z,18.93
2022-11-14T05:13:45.477Z,19.67
2022-11-14T05:16:14.220Z,19.37
2022-11-14T05:18:46.879Z,20.23
2022-11-14T05:21:15.998Z,19.83
2022-11-14T05:23:43.820Z,18.90
2022-11-14T05:26:13.209Z,19.10
2022-11-14T05:28:42.447Z,18.67
2022-11-14T05:31:12.345Z,18.33
2022-11-14T05:33:40.548Z,19.50
2022-11-14T05:36:10.420Z,18.23
2022-11-14T05:38:38.402Z,18.50
2022-11-14T05:41:10.140Z,19.83
2022-11-14T05:43:38.172Z,17.93
2022-11-14T05:46:10.921Z,18.77
2022-11-14T05:48:39.380Z,17.27
2022-11-14T05:51:08.718Z,18.20
2022-11-14T05:53:36.607Z,18.23
2022-11-14T05:56:06.629Z,18.17
2022-11-14T05:58:35.656Z,19.17
2022-11-14T06:01:05.003Z,19.40
2022-11-14T06:03:35.798Z,18.60
2022-11-14T06:06:04.624Z,18.47
2022-11-14T06:08:33.085Z,17.90
2022-11-14T06:11:04.432Z,18.37
2022-11-14T06:13:32.962Z,17.53
2022-11-14T06:16:04.690Z,16.67
2022-11-14T06:18:35.121Z,17.73
2022-11-14T06:21:04.928Z,17.93
2022-11-14T06:23:32.911Z,18.23
2022-11-14T06:26:01.620Z,18.60
2022-11-14T06:28:30.354Z,17.57
2022-11-14T06:30:59.885Z,17.93
2022-11-14T06:33:28.206Z,17.60
2022-11-14T06:36:01.299Z,17.77
2022-11-14T06:38:31.590Z,16.90
2022-11-14T06:41:06.597Z,17.27
2022-11-14T06:43:35.391Z,17.63
2022-11-14T06:46:03.775Z,18.23
2022-11-14T06:48:32.641Z,17.87
2022-11-14T06:51:03.327Z,17.87
2022-11-14T06:53:33.387Z,17.80
2022-11-14T06:56:03.091Z,17.70
2022-11-14T06:58:33.258Z,17.77
2022-11-14T07:01:05.930Z,17.37
2022-11-14T07:03:33.891Z,17.30
2022-11-14T07:06:04.080Z,17.43
2022-11-14T07:08:32.747Z,18.17
2022-11-14T07:11:04.632Z,17.17
2022-11-14T07:13:33.306Z,17.17
2022-11-14T07:16:01.858Z,18.60
2022-11-14T07:18:31.863Z,17.27
2022-11-14T07:21:01.217Z,18.00
2022-11-14T07:23:31.360Z,17.20
2022-11-14T07:26:02.404Z,18.17
2022-11-14T07:28:32.131Z,17.50
2022-11-14T07:31:00.287Z,17.60
2022-11-14T07:33:28.111Z,17.53
2022-11-14T07:35:55.988Z,17.73
2022-11-14T07:38:23.853Z,18.10
2022-11-14T07:40:59.547Z,17.30
2022-11-14T07:43:28.468Z,17.60
2022-11-14T07:46:00.255Z,18.17
2022-11-14T07:48:28.556Z,16.87
2022-11-14T07:51:00.088Z,16.97
2022-11-14T07:53:28.448Z,17.17
2022-11-14T07:55:58.024Z,17.97
2022-11-14T07:58:25.965Z,17.10
2022-11-14T08:00:54.095Z,17.53
2022-11-14T08:03:21.970Z,16.27
2022-11-14T08:05:49.868Z,16.97
2022-11-14T08:08:17.794Z,17.33
2022-11-14T08:10:46.111Z,16.30
2022-11-14T08:13:31.600Z,17.13
2022-11-14T08:16:00.955Z,16.80
2022-11-14T08:18:29.118Z,16.60
2022-11-14T08:20:57.659Z,16.23
2022-11-14T08:23:25.672Z,16.07
2022-11-14T08:25:53.926Z,16.60
2022-11-14T08:28:23.148Z,17.50
2022-11-14T08:30:51.027Z,16.43
2022-11-14T08:33:18.883Z,16.33
2022-11-14T08:35:46.761Z,16.43
2022-11-14T08:38:14.648Z,15.83
2022-11-14T08:40:44.026Z,16.53
2022-11-14T08:43:11.902Z,17.10
2022-11-14T08:45:41.067Z,16.07
2022-11-14T08:48:08.989Z,16.17
2022-11-14T08:50:36.794Z,16.73
2022-11-14T08:53:04.638Z,16.13
2022-11-14T08:55:32.465Z,16.47
2022-11-14T08:58:00.221Z,16.20
2022-11-14T09:00:28.118Z,15.90
2022-11-14T09:02:57.805Z,15.40
2022-11-14T09:05:25.624Z,15.93
2022-11-14T09:07:53.443Z,15.47
2022-11-14T09:10:21.260Z,16.27
2022-11-14T09:12:49.090Z,15.87
2022-11-14T09:15:17.067Z,16.30
2022-11-14T09:17:44.851Z,15.40
2022-11-14T09:20:14.044Z,15.83
2022-11-14T09:22:41.857Z,14.53
2022-11-14T09:25:10.299Z,16.07
2022-11-14T09:27:38.278Z,14.63
2022-11-14T09:30:07.445Z,15.17
2022-11-14T09:32:35.254Z,16.27
2022-11-14T09:35:03.055Z,15.40
2022-11-14T09:37:32.253Z,15.97
2022-11-14T09:40:00.081Z,14.90
2022-11-14T09:42:46.958Z,16.17
2022-11-14T09:45:17.297Z,14.33
2022-11-14T09:47:47.360Z,15.80
2022-11-14T09:50:20.583Z,15.30
2022-11-14T09:52:56.712Z,14.40
2022-11-14T09:55:33.588Z,14.47
2022-11-14T09:58:05.323Z,15.77
2022-11-14T10:00:51.918Z,15.03
2022-11-14T10:03:30.198Z,15.03
2022-11-14T10:06:27.494Z,15.30
2022-11-14T10:09:13.071Z,15.07
2022-11-14T10:11:45.498Z,15.00
2022-11-14T10:14:54.452Z,15.33
2022-11-14T10:17:43.654Z,14.90
2022-11-14T10:20:18.769Z,15.50
2022-11-14T10:23:07.876Z,14.83
2022-11-14T10:25:51.233Z,14.40
2022-11-14T10:28:33.912Z,13.93
2022-11-14T10:31:08.482Z,14.07
2022-11-14T10:33:49.371Z,15.07
2022-11-14T10:36:25.241Z,15.37
2022-11-14T10:38:57.836Z,14.70
2022-11-14T10:41:55.135Z,13.47
2022-11-14T10:44:23.774Z,13.40
2022-11-14T10:46:55.003Z,13.43
2022-11-14T10:49:25.072Z,13.57
2022-11-14T10:51:55.815Z,12.93
2022-11-14T10:54:28.596Z,13.63
2022-11-14T10:56:57.755Z,14.17
2022-11-14T10:59:27.641Z,14.10
2022-11-14T11:01:58.297Z,13.43
2022-11-14T11:04:28.495Z,15.00
2022-11-14T11:06:58.097Z,13.73
2022-11-14T11:09:46.206Z,13.47
2022-11-14T11:12:18.709Z,13.63
2022-11-14T11:14:48.059Z,13.10
2022-11-14T11:17:21.486Z,12.10
2022-11-14T11:19:50.268Z,13.00
2022-11-14T11:22:36.731Z,12.40
2022-11-14T11:25:22.941Z,12.37
2022-11-14T11:28:05.475Z,11.63
2022-11-14T11:30:33.349Z,11.10
2022-11-14T11:33:17.170Z,10.67
2022-11-14T11:35:47.928Z,10.77
2022-11-14T11:38:16.752Z,10.27
2022-11-14T11:40:45.773Z,11.20
2022-11-14T11:43:38.478Z,10.70
2022-11-14T11:46:14.558Z,10.43
2022-11-14T11:48:42.902Z,11.03
2022-11-14T11:51:16.530Z,10.43
2022-11-14T11:53:47.973Z,10.73
2022-11-14T11:56:20.951Z,11.00
2022-11-14T11:58:51.914Z,11.53
2022-11-14T12:01:19.845Z,10.53
2022-11-14T12:03:51.854Z,11.67
2022-11-14T12:06:26.952Z,11.07
2022-11-14T12:09:19.966Z,10.90
2022-11-14T12:12:05.269Z,10.67
2022-11-14T12:14:53.683Z,10.93
2022-11-14T12:17:33.440Z,11.87
2022-11-14T12:20:26.061Z,12.30
2022-11-14T12:23:16.418Z,11.07
2022-11-14T12:25:58.576Z,10.77
2022-11-14T12:28:44.750Z,11.57
2022-11-14T12:31:16.978Z,11.13
2022-11-14T12:33:49.188Z,12.07
2022-11-14T12:36:17.176Z,10.90
2022-11-14T12:38:47.891Z,11.47
2022-11-14T12:41:28.847Z,11.60
2022-11-14T12:44:18.352Z,11.80
2022-11-14T12:47:15.990Z,12.53
2022-11-14T12:50:01.840Z,12.00
2022-11-14T12:52:45.580Z,11.17
2022-11-14T12:55:57.698Z,12.13
2022-11-14T12:58:37.899Z,11.67
2022-11-14T13:01:21.388Z,11.63
2022-11-14T13:04:07.392Z,12.70
2022-11-14T13:06:47.820Z,12.80
2022-11-14T13:09:35.237Z,13.00
2022-11-14T13:12:50.539Z,11.90
2022-11-14T13:15:49.139Z,12.83
2022-11-14T13:18:44.763Z,12.53
2022-11-14T13:21:45.737Z,12.60
2022-11-14T13:24:16.169Z,12.77
2022-11-14T13:26:49.274Z,13.23
2022-11-14T13:30:01.881Z,13.30
2022-11-14T13:33:05.951Z,14.83
2022-11-14T13:36:04.901Z,14.77
2022-11-14T13:39:05.181Z,14.67
2022-11-14T13:42:03.194Z,16.90
2022-11-14T13:45:03.428Z,15.83
2022-11-14T13:47:57.794Z,15.50
2022-11-14T13:50:30.804Z,14.47
2022-11-14T13:52:59.256Z,14.90
2022-11-14T13:55:38.695Z,15.17
2022-11-14T13:58:21.611Z,14.03
2022-11-14T14:01:03.524Z,13.97
2022-11-14T14:03:46.589Z,14.13
2022-11-14T14:06:37.207Z,15.57
2022-11-14T14:09:15.963Z,15.07
2022-11-14T14:11:57.644Z,15.40
2022-11-14T14:14:41.683Z,16.70
2022-11-14T14:17:15.408Z,16.80
2022-11-14T14:19:56.528Z,17.37
2022-11-14T14:22:32.248Z,16.33
2022-11-14T14:25:08.410Z,16.77
2022-11-14T14:27:53.917Z,16.07
2022-11-14T14:30:22.694Z,16.07
2022-11-14T14:33:04.488Z,15.43
2022-11-14T14:35:38.794Z,15.03
2022-11-14T14:38:13.526Z,14.60
2022-11-14T14:40:43.062Z,14.63
2022-11-14T14:43:25.451Z,15.33
2022-11-14T14:45:55.047Z,16.03
2022-11-14T14:48:26.423Z,15.63
2022-11-14T14:50:56.087Z,15.20
2022-11-14T14:53:25.317Z,16.03
2022-11-14T14:55:55.839Z,15.73
2022-11-14T14:58:29.529Z,15.03
2022-11-14T15:01:01.377Z,15.80
2022-11-14T15:03:36.838Z,16.30
2022-11-14T15:06:07.580Z,16.13
2022-11-14T15:08:39.436Z,16.50
2022-11-14T15:11:07.993Z,15.67
2022-11-14T15:13:38.613Z,16.23
2022-11-14T15:16:07.537Z,16.87
2022-11-14T15:18:35.535Z,14.90
2022-11-14T15:21:11.795Z,16.03
2022-11-14T15:23:40.128Z,15.37
2022-11-14T15:26:15.463Z,16.53
2022-11-14T15:28:45.273Z,16.33
2022-11-14T15:31:21.099Z,14.50
2022-11-14T15:34:02.802Z,14.67
2022-11-14T15:36:30.629Z,14.93
2022-11-14T15:39:04.020Z,15.27
2022-11-14T15:41:32.662Z,15.07
2022-11-14T15:44:05.456Z,15.43
2022-11-14T15:46:41.741Z,15.20
2022-11-14T15:49:17.627Z,14.73
2022-11-14T15:51:47.866Z,15.63
2022-11-14T15:54:23.612Z,15.17
2022-11-14T15:56:51.954Z,14.17
2022-11-14T15:59:21.395Z,14.47
2022-11-14T16:01:52.169Z,14.17
2022-11-14T16:04:21.777Z,13.90
2022-11-14T16:06:49.766Z,13.97
2022-11-14T16:09:19.244Z,14.07
2022-11-14T16:11:49.048Z,14.17
2022-11-14T16:14:17.145Z,14.10
2022-11-14T16:16:46.313Z,15.23
2022-11-14T16:19:16.151Z,14.43
2022-11-14T16:21:44.599Z,14.60
2022-11-14T16:24:16.878Z,14.40
2022-11-14T16:26:44.820Z,14.40
2022-11-14T16:29:12.816Z,14.90
2022-11-14T16:31:40.964Z,15.23
2022-11-14T16:34:15.022Z,15.17
2022-11-14T16:36:45.168Z,14.80
2022-11-14T16:39:14.111Z,15.23
2022-11-14T16:41:42.215Z,15.67
2022-11-14T16:44:14.807Z,15.60
2022-11-14T16:46:43.009Z,16.37
2022-11-14T16:49:14.947Z,16.20
2022-11-14T16:51:47.900Z,16.07
2022-11-14T16:54:17.673Z,15.17
2022-11-14T16:56:45.841Z,16.57
2022-11-14T16:59:14.115Z,16.03
2022-11-14T17:01:42.486Z,16.77
2022-11-14T17:04:10.591Z,17.23
2022-11-14T17:06:39.722Z,15.37
2022-11-14T17:09:07.594Z,17.13
2022-11-14T17:11:35.843Z,17.07
2022-11-14T17:14:03.651Z,16.37
2022-11-14T17:16:31.432Z,15.73
2022-11-14T17:18:59.393Z,16.73
2022-11-14T17:21:28.004Z,17.23
2022-11-14T17:23:57.917Z,15.87
2022-11-14T17:26:25.678Z,17.63
2022-11-14T17:28:53.515Z,16.53
2022-11-14T17:31:21.696Z,16.47
2022-11-14T17:33:53.417Z,15.07
2022-11-14T17:36:21.789Z,16.67
2022-11-14T17:38:49.694Z,16.37
2022-11-14T17:41:19.358Z,15.67
2022-11-14T17:43:47.176Z,16.03
2022-11-14T17:46:16.292Z,16.00
2022-11-14T17:48:44.477Z,15.17
2022-11-14T17:51:14.445Z,14.80
2022-11-14T17:53:42.990Z,15.80
2022-11-14T17:56:14.586Z,14.17
2022-11-14T17:58:44.160Z,14.70
2022-11-14T18:01:13.371Z,14.60
2022-11-14T18:03:41.591Z,14.33
2022-11-14T18:06:10.770Z,14.27
2022-11-14T18:08:39.268Z,13.53
2022-11-14T18:11:09.954Z,13.80
2022-11-14T18:13:38.876Z,13.70
2022-11-14T18:16:11.356Z,13.43
2022-11-14T18:18:40.203Z,13.47
2022-11-14T18:21:09.654Z,13.70
2022-11-14T18:23:38.652Z,13.03
2022-11-14T18:26:13.745Z,13.00
2022-11-14T18:28:42.170Z,12.50
2022-11-14T18:31:13.262Z,12.97
2022-11-14T18:33:42.601Z,12.83
2022-11-14T18:36:13.126Z,12.17
2022-11-14T18:38:41.698Z,12.40
2022-11-14T18:41:11.191Z,12.10
2022-11-14T18:43:38.955Z,13.37
2022-11-14T18:46:08.348Z,12.13
2022-11-14T18:48:39.696Z,13.50
2022-11-14T18:51:13.119Z,12.47
2022-11-14T18:53:40.986Z,12.33
2022-11-14T18:56:11.225Z,12.60
2022-11-14T18:58:41.163Z,12.03
2022-11-14T19:01:11.076Z,12.40
2022-11-14T19:03:40.456Z,12.20
2022-11-14T19:06:10.312Z,11.83
2022-11-14T19:08:38.105Z,10.93
2022-11-14T19:11:07.634Z,11.70
2022-11-14T19:13:35.478Z,10.83
2022-11-14T19:16:03.755Z,11.33
2022-11-14T19:18:32.183Z,11.00
2022-11-14T19:21:02.906Z,10.63
2022-11-14T19:23:31.784Z,10.30
2022-11-14T19:26:01.215Z,10.90
2022-11-14T19:28:30.221Z,10.40
2022-11-14T19:31:01.974Z,10.33
2022-11-14T19:33:33.108Z,10.50
2022-11-14T19:36:08.205Z,10.23
2022-11-14T19:38:36.228Z,10.17
2022-11-14T19:41:07.966Z,10.00
2022-11-14T19:43:35.921Z,9.30
2022-11-14T19:46:04.417Z,10.20
2022-11-14T19:48:32.667Z,9.53
2022-11-14T19:51:02.194Z,9.80
2022-11-14T19:53:32.238Z,9.70
2022-11-14T19:56:01.361Z,9.97
2022-11-14T19:58:29.614Z,10.10
2022-11-14T20:01:04.372Z,10.20
2022-11-14T20:03:33.080Z,9.73
2022-11-14T20:06:01.218Z,10.17
2022-11-14T20:08:29.250Z,10.07
2022-11-14T20:11:03.222Z,9.87
2022-11-14T20:13:32.062Z,9.63
2022-11-14T20:16:00.576Z,10.10
2022-11-14T20:18:31.177Z,9.53
2022-11-14T20:21:03.844Z,9.50
2022-11-14T20:23:31.933Z,10.10
2022-11-14T20:26:01.359Z,9.27
2022-11-14T20:28:29.874Z,9.10
2022-11-14T20:31:01.922Z,10.60
2022-11-14T20:33:30.234Z,10.53
2022-11-14T20:36:03.353Z,10.13
2022-11-14T20:38:31.500Z,10.83
2022-11-14T20:41:01.699Z,10.47
2022-11-14T20:43:29.953Z,10.40
2022-11-14T20:45:59.293Z,10.70
2022-11-14T20:48:28.092Z,10.30
2022-11-14T20:51:03.445Z,10.67
2022-11-14T20:53:32.454Z,10.27
2022-11-14T20:56:03.972Z,10.43
2022-11-14T20:58:32.792Z,11.47
2022-11-14T21:01:00.718Z,10.90
2022-11-14T21:03:29.083Z,11.13
2022-11-14T21:05:57.638Z,11.53
2022-11-14T21:08:25.537Z,10.53
2022-11-14T21:10:59.331Z,11.10
2022-11-14T21:13:46.003Z,11.87
2022-11-14T21:16:15.658Z,10.37
2022-11-14T21:18:47.731Z,10.60
2022-11-14T21:21:18.383Z,10.17
2022-11-14T21:23:47.587Z,11.03
2022-11-14T21:26:17.708Z,10.43
2022-11-14T21:28:48.975Z,11.20
2022-11-14T21:31:18.780Z,10.77
2022-11-14T21:33:47.537Z,11.33
2022-11-14T21:36:43.277Z,10.70
2022-11-14T21:39:04.844Z,10.50
2022-11-14T21:41:33.537Z,10.83
2022-11-14T21:44:04.234Z,10.27
2022-11-14T21:46:32.033Z,11.00
2022-11-14T21:48:59.806Z,10.70
2022-11-14T21:51:29.221Z,10.63
2022-11-14T21:53:58.662Z,11.40
2022-11-14T21:56:28.046Z,11.80
2022-11-14T21:59:12.498Z,11.87
2022-11-14T22:02:01.447Z,12.53
2022-11-14T22:04:29.730Z,11.73
2022-11-14T22:06:57.915Z,12.80
2022-11-14T22:09:27.457Z,12.53
2022-11-14T22:11:55.847Z,12.27
2022-11-14T22:14:23.669Z,12.60
2022-11-14T22:16:52.848Z,12.90
2022-11-14T22:19:20.681Z,12.67
2022-11-14T22:21:48.497Z,12.87
2022-11-14T22:24:16.321Z,12.70
2022-11-14T22:26:44.101Z,13.83
2022-11-14T22:29:12.023Z,13.60
2022-11-14T22:31:39.939Z,13.43
2022-11-14T22:34:09.145Z,14.23
2022-11-14T22:36:36.945Z,14.10
2022-11-14T22:39:05.528Z,14.00
2022-11-14T22:41:34.112Z,13.50
2022-11-14T22:44:02.470Z,14.07
2022-11-14T22:46:30.671Z,14.23
2022-11-14T22:48:59.154Z,13.40
2022-11-14T22:51:29.116Z,14.23
2022-11-14T22:53:59.252Z,13.77
2022-11-14T22:56:29.290Z,14.13
2022-11-14T22:58:59.551Z,14.37
2022-11-14T23:01:29.025Z,14.17
2022-11-14T23:03:59.134Z,14.73
2022-11-14T23:06:29.451Z,13.33
2022-11-14T23:08:57.440Z,14.13
2022-11-14T23:11:27.339Z,13.80
2022-11-14T23:13:57.197Z,13.37
2022-11-14T23:16:27.007Z,13.37
2022-11-14T23:18:56.399Z,13.27
2022-11-14T23:21:26.581Z,14.03
2022-11-14T23:23:56.844Z,13.60
2022-11-14T23:26:25.327Z,14.03
2022-11-14T23:28:53.558Z,14.27
2022-11-14T23:31:23.080Z,14.00
2022-11-14T23:33:52.988Z,13.63
2022-11-14T23:36:20.864Z,13.60
2022-11-14T23:38:48.672Z,13.93
2022-11-14T23:41:19.798Z,14.07
2022-11-14T23:43:48.173Z,13.87
2022-11-14T23:46:16.339Z,13.93
2022-11-14T23:48:44.502Z,14.40
2022-11-14T23:51:13.611Z,13.10
2022-11-14T23:53:41.553Z,13.87
2022-11-14T23:56:13.099Z,14.30
2022-11-14T23:58:42.653Z,14.17
